createdAt,value
2018-03-25T00:02:50.650Z,-0.50
2018-03-25T00:05:54.813Z,-0.60
2018-03-25T00:09:03.143Z,-0.60
2018-03-25T00:12:07.169Z,-0.70
2018-03-25T00:15:12.440Z,-0.70
2018-03-25T00:18:17.255Z,-0.70
2018-03-25T00:21:21.890Z,-0.80
2018-03-25T00:24:26.891Z,-0.80
2018-03-25T00:27:30.486Z,-0.90
2018-03-25T00:30:35.251Z,-0.90
2018-03-25T00:33:41.461Z,-0.90
2018-03-25T00:36:46.913Z,-0.80
2018-03-25T00:39:54.839Z,-0.80
2018-03-25T00:43:31.611Z,-0.90
2018-03-25T00:46:40.242Z,-1.00
2018-03-25T00:49:46.963Z,-0.80
2018-03-25T00:52:54.631Z,-0.80
2018-03-25T00:56:01.624Z,-0.80
2018-03-25T00:59:07.548Z,-0.90
2018-03-25T01:02:16.112Z,-0.90
2018-03-25T01:05:29.072Z,-1.00
2018-03-25T01:08:38.341Z,-0.90
2018-03-25T01:11:47.292Z,-0.90
2018-03-25T01:18:12.373Z,-1.00
2018-03-25T01:21:22.332Z,-1.00
2018-03-25T01:24:33.269Z,-0.90
2018-03-25T01:27:49.552Z,-1.00
2018-03-25T01:35:05.060Z,-1.10
2018-03-25T01:38:11.737Z,-1.10
2018-03-25T01:41:41.600Z,-1.20
2018-03-25T01:48:16.254Z,-1.30
2018-03-25T01:52:35.149Z,-1.30
2018-03-25T01:56:03.413Z,-1.30
2018-03-25T01:59:12.851Z,-1.30
2018-03-25T02:02:25.137Z,-1.30
2018-03-25T02:10:57.903Z,-1.40
2018-03-25T02:14:06.962Z,-1.30
2018-03-25T02:20:37.838Z,-1.40
2018-03-25T02:23:49.162Z,-1.40
2018-03-25T02:27:03.916Z,-1.50
2018-03-25T02:30:28.892Z,-1.50
2018-03-25T02:33:53.745Z,-1.50
2018-03-25T02:40:53.896Z,-1.60
2018-03-25T02:44:01.252Z,-1.50
2018-03-25T02:50:25.693Z,-1.60
2018-03-25T02:53:41.392Z,-1.60
2018-03-25T02:56:49.188Z,-1.60
2018-03-25T02:59:56.910Z,-1.70
2018-03-25T03:03:03.023Z,-1.70
2018-03-25T03:06:12.605Z,-1.70
2018-03-25T03:09:23.784Z,-1.70
2018-03-25T03:12:29.301Z,-1.70
2018-03-25T03:15:35.068Z,-1.70
2018-03-25T03:18:46.373Z,-1.70
2018-03-25T03:21:54.820Z,-1.70
2018-03-25T03:24:58.624Z,-1.80
2018-03-25T03:28:03.640Z,-1.80
2018-03-25T03:31:11.123Z,-1.80
2018-03-25T03:34:17.922Z,-1.90
2018-03-25T03:37:21.602Z,-1.90
2018-03-25T03:40:25.643Z,-1.90
2018-03-25T03:43:30.342Z,-1.90
2018-03-25T03:46:37.890Z,-1.90
2018-03-25T03:49:41.753Z,-1.90
2018-03-25T03:52:46.182Z,-2.00
2018-03-25T03:55:52.053Z,-2.00
2018-03-25T03:58:55.697Z,-2.00
2018-03-25T04:02:01.649Z,-1.90
2018-03-25T04:05:06.717Z,-1.90
2018-03-25T04:08:12.366Z,-2.00
2018-03-25T04:11:17.254Z,-2.10
2018-03-25T04:14:21.514Z,-2.10
2018-03-25T04:17:26.403Z,-2.10
2018-03-25T04:20:34.339Z,-2.20
2018-03-25T04:23:38.145Z,-2.20
2018-03-25T04:26:41.811Z,-2.20
2018-03-25T04:29:46.616Z,-2.20
2018-03-25T04:32:51.473Z,-2.20
2018-03-25T04:35:56.277Z,-2.20
2018-03-25T04:38:59.990Z,-2.20
2018-03-25T04:42:04.083Z,-2.30
2018-03-25T04:45:07.624Z,-2.30
2018-03-25T04:48:11.129Z,-2.30
2018-03-25T04:51:14.712Z,-2.30
2018-03-25T04:54:18.418Z,-2.40
2018-03-25T04:57:23.175Z,-2.40
2018-03-25T05:00:26.773Z,-2.40
2018-03-25T05:03:30.288Z,-2.30
2018-03-25T05:06:34.180Z,-2.30
2018-03-25T05:09:38.292Z,-2.20
2018-03-25T05:12:42.939Z,-2.20
2018-03-25T05:15:46.540Z,-2.20
2018-03-25T05:18:50.446Z,-2.30
2018-03-25T05:21:54.024Z,-2.40
2018-03-25T05:24:58.398Z,-2.30
2018-03-25T05:28:02.804Z,-2.40
2018-03-25T05:31:07.522Z,-2.30
2018-03-25T05:34:11.227Z,-2.30
2018-03-25T05:37:15.448Z,-2.20
2018-03-25T05:40:19.974Z,-2.20
2018-03-25T05:43:23.565Z,-2.10
2018-03-25T05:46:27.161Z,-2.00
2018-03-25T05:49:30.766Z,-1.90
2018-03-25T05:52:34.805Z,-1.80
2018-03-25T05:55:39.436Z,-1.70
2018-03-25T05:58:43.075Z,-1.70
2018-03-25T06:01:47.520Z,-1.50
2018-03-25T06:04:51.882Z,-1.50
2018-03-25T06:07:55.925Z,-1.50
2018-03-25T06:10:59.478Z,-1.30
2018-03-25T06:14:04.215Z,-1.30
2018-03-25T06:17:09.855Z,-1.10
2018-03-25T06:20:14.615Z,-0.40
2018-03-25T06:23:19.207Z,-0.40
2018-03-25T06:26:23.290Z,0.10
2018-03-25T06:29:27.743Z,1.30
2018-03-25T06:32:41.650Z,1.20
2018-03-25T06:35:45.601Z,1.80
2018-03-25T06:38:50.300Z,2.30
2018-03-25T06:41:55.063Z,2.90
2018-03-25T06:44:59.298Z,3.40
2018-03-25T06:48:04.840Z,4.20
2018-03-25T06:51:10.569Z,5.20
2018-03-25T06:54:14.890Z,5.40
2018-03-25T06:57:20.427Z,5.70
2018-03-25T07:00:24.237Z,5.80
2018-03-25T07:03:28.971Z,5.80
2018-03-25T07:06:33.584Z,5.70
2018-03-25T07:09:38.644Z,6.60
2018-03-25T07:12:46.581Z,8.10
2018-03-25T07:15:53.018Z,8.00
2018-03-25T07:19:00.390Z,7.70
2018-03-25T07:22:07.532Z,8.50
2018-03-25T07:25:11.198Z,8.50
2018-03-25T07:28:14.894Z,9.40
2018-03-25T07:31:28.336Z,10.00
2018-03-25T07:34:32.051Z,9.80
2018-03-25T07:37:36.958Z,9.70
2018-03-25T07:40:41.482Z,10.40
2018-03-25T07:43:45.013Z,10.30
2018-03-25T07:46:50.652Z,11.00
2018-03-25T07:49:55.427Z,10.90
2018-03-25T07:53:00.023Z,12.00
2018-03-25T07:56:04.874Z,12.00
2018-03-25T07:59:08.462Z,11.90
2018-03-25T08:02:13.398Z,12.00
2018-03-25T08:05:17.072Z,13.40
2018-03-25T08:08:20.602Z,13.90
2018-03-25T08:11:24.608Z,13.40
2018-03-25T08:14:31.003Z,14.30
2018-03-25T08:17:37.545Z,14.60
2018-03-25T08:20:41.369Z,14.60
2018-03-25T08:23:45.179Z,14.40
2018-03-25T08:26:48.829Z,14.70
2018-03-25T08:29:52.487Z,14.00
2018-03-25T08:32:55.968Z,12.60
2018-03-25T08:36:00.285Z,12.80
2018-03-25T08:39:03.917Z,12.80
2018-03-25T08:42:08.396Z,12.50
2018-03-25T08:45:12.000Z,12.50
2018-03-25T08:48:15.953Z,13.40
2018-03-25T08:51:19.620Z,13.70
2018-03-25T08:54:23.290Z,13.40
2018-03-25T08:57:27.525Z,13.50
2018-03-25T09:00:32.111Z,12.90
2018-03-25T09:06:44.707Z,13.80
2018-03-25T09:09:48.265Z,14.80
2018-03-25T09:12:51.921Z,14.20
2018-03-25T09:19:05.552Z,14.00
2018-03-25T09:22:10.889Z,13.80
2018-03-25T09:28:28.343Z,14.30
2018-03-25T09:31:32.010Z,14.20
2018-03-25T09:34:35.651Z,14.90
2018-03-25T09:37:39.736Z,14.00
2018-03-25T09:40:44.069Z,15.20
2018-03-25T09:43:49.034Z,15.20
2018-03-25T09:46:52.618Z,15.70
2018-03-25T09:49:56.294Z,17.10
2018-03-25T09:53:00.757Z,16.70
2018-03-25T09:56:04.690Z,16.30
2018-03-25T09:59:08.164Z,16.40
2018-03-25T10:02:12.574Z,17.30
2018-03-25T10:05:16.806Z,16.90
2018-03-25T10:08:20.531Z,17.60
2018-03-25T10:14:39.503Z,17.30
2018-03-25T10:17:43.069Z,17.20
2018-03-25T10:20:46.836Z,17.30
2018-03-25T10:23:51.490Z,17.30
2018-03-25T10:26:56.780Z,17.10
2018-03-25T10:30:00.513Z,17.10
2018-03-25T10:33:05.499Z,17.30
2018-03-25T10:36:10.642Z,17.30
2018-03-25T10:39:14.380Z,16.90
2018-03-25T10:42:17.953Z,14.90
2018-03-25T10:45:22.028Z,13.90
2018-03-25T10:48:26.352Z,15.90
2018-03-25T10:51:30.832Z,15.50
2018-03-25T10:54:34.634Z,15.50
2018-03-25T10:57:39.482Z,15.60
2018-03-25T11:00:43.273Z,15.60
2018-03-25T11:03:46.805Z,15.50
2018-03-25T11:06:50.472Z,14.60
2018-03-25T11:09:54.525Z,14.20
2018-03-25T11:12:58.085Z,13.90
2018-03-25T11:16:01.651Z,13.90
2018-03-25T11:19:05.311Z,14.20
2018-03-25T11:22:08.883Z,14.70
2018-03-25T11:25:12.605Z,14.40
2018-03-25T11:28:16.795Z,14.10
2018-03-25T11:31:21.257Z,14.50
2018-03-25T11:34:24.984Z,15.30
2018-03-25T11:37:28.619Z,15.20
2018-03-25T11:40:32.066Z,14.90
2018-03-25T11:43:35.478Z,14.10
2018-03-25T11:46:39.295Z,13.70
2018-03-25T11:49:43.592Z,13.20
2018-03-25T11:52:47.032Z,13.20
2018-03-25T11:55:50.437Z,13.00
2018-03-25T11:58:54.198Z,13.20
2018-03-25T12:01:58.394Z,12.90
2018-03-25T12:05:02.621Z,12.40
2018-03-25T12:08:06.830Z,12.40
2018-03-25T12:11:11.102Z,12.30
2018-03-25T12:14:14.653Z,12.20
2018-03-25T12:17:18.121Z,12.40
2018-03-25T12:20:21.562Z,12.10
2018-03-25T12:23:25.054Z,11.80
2018-03-25T12:26:29.207Z,11.00
2018-03-25T12:29:32.605Z,11.00
2018-03-25T12:32:35.982Z,11.20
2018-03-25T12:35:40.019Z,11.30
2018-03-25T12:38:43.443Z,11.20
2018-03-25T12:41:46.850Z,11.20
2018-03-25T12:44:50.349Z,11.50
2018-03-25T12:47:53.987Z,11.40
2018-03-25T12:50:58.118Z,11.10
2018-03-25T12:54:01.525Z,11.00
2018-03-25T12:57:04.962Z,11.30
2018-03-25T13:00:08.662Z,11.60
2018-03-25T13:03:12.072Z,11.80
2018-03-25T13:06:15.444Z,11.90
2018-03-25T13:09:18.860Z,12.00
2018-03-25T13:12:22.256Z,12.10
2018-03-25T13:15:25.594Z,12.10
2018-03-25T13:18:28.957Z,12.10
2018-03-25T13:21:33.017Z,12.00
2018-03-25T13:24:36.373Z,12.00
2018-03-25T13:27:40.548Z,11.90
2018-03-25T13:30:44.674Z,11.80
2018-03-25T13:33:48.759Z,12.00
2018-03-25T13:36:52.548Z,12.00
2018-03-25T13:39:55.830Z,12.20
2018-03-25T13:42:59.180Z,12.30
2018-03-25T13:46:02.540Z,12.00
2018-03-25T13:49:05.876Z,11.80
2018-03-25T13:52:10.060Z,11.70
2018-03-25T13:55:13.389Z,11.70
2018-03-25T13:58:16.700Z,11.70
2018-03-25T14:01:20.319Z,11.50
2018-03-25T14:04:24.567Z,11.30
2018-03-25T14:07:27.971Z,11.30
2018-03-25T14:10:31.300Z,11.40
2018-03-25T14:13:35.596Z,11.40
2018-03-25T14:16:39.078Z,11.40
2018-03-25T14:19:43.278Z,11.40
2018-03-25T14:22:46.644Z,11.10
2018-03-25T14:25:51.158Z,11.10
2018-03-25T14:28:54.575Z,11.00
2018-03-25T14:31:59.455Z,10.90
2018-03-25T14:35:02.774Z,10.90
2018-03-25T14:38:10.344Z,10.90
2018-03-25T14:41:13.770Z,11.00
2018-03-25T14:44:17.103Z,11.20
2018-03-25T14:47:20.447Z,11.20
2018-03-25T14:50:23.860Z,11.20
2018-03-25T14:53:27.271Z,11.20
2018-03-25T14:56:30.704Z,11.40
2018-03-25T14:59:34.869Z,11.70
2018-03-25T15:02:38.785Z,11.70
2018-03-25T15:05:42.102Z,12.00
2018-03-25T15:08:45.521Z,12.20
2018-03-25T15:11:49.607Z,12.70
2018-03-25T15:14:52.986Z,12.60
2018-03-25T15:17:56.441Z,12.80
2018-03-25T15:21:00.568Z,13.10
2018-03-25T15:24:04.809Z,13.20
2018-03-25T15:27:08.536Z,13.20
2018-03-25T15:30:12.023Z,13.30
2018-03-25T15:33:15.732Z,13.30
2018-03-25T15:36:19.155Z,13.10
2018-03-25T15:39:22.491Z,12.70
2018-03-25T15:42:25.882Z,12.40
2018-03-25T15:45:29.270Z,12.40
2018-03-25T15:48:33.385Z,12.30
2018-03-25T15:51:36.745Z,12.30
2018-03-25T15:54:40.305Z,12.20
2018-03-25T15:57:43.691Z,12.00
2018-03-25T16:00:47.022Z,12.00
2018-03-25T16:03:51.436Z,11.70
2018-03-25T16:06:54.731Z,11.70
2018-03-25T16:09:58.997Z,11.70
2018-03-25T16:13:02.396Z,11.70
2018-03-25T16:16:06.184Z,11.60
2018-03-25T16:19:09.488Z,11.40
2018-03-25T16:22:12.936Z,11.30
2018-03-25T16:25:17.069Z,11.20
2018-03-25T16:28:20.779Z,11.20
2018-03-25T16:31:24.325Z,11.20
2018-03-25T16:34:27.742Z,11.10
2018-03-25T16:37:31.153Z,11.00
2018-03-25T16:40:34.478Z,11.00
2018-03-25T16:43:37.985Z,11.00
2018-03-25T16:46:41.811Z,10.80
2018-03-25T16:49:45.103Z,10.70
2018-03-25T16:52:48.679Z,10.60
2018-03-25T16:55:51.996Z,10.60
2018-03-25T16:58:55.963Z,10.60
2018-03-25T17:02:00.261Z,10.50
2018-03-25T17:05:03.840Z,10.50
2018-03-25T17:08:07.438Z,10.50
2018-03-25T17:11:11.334Z,10.40
2018-03-25T17:14:14.849Z,10.40
2018-03-25T17:17:18.376Z,10.30
2018-03-25T17:20:21.888Z,10.20
2018-03-25T17:23:25.565Z,10.20
2018-03-25T17:29:38.678Z,10.20
2018-03-25T17:32:41.976Z,10.20
2018-03-25T17:35:45.356Z,10.10
2018-03-25T17:38:48.744Z,10.00
2018-03-25T17:41:52.142Z,10.00
2018-03-25T17:44:55.453Z,9.90
2018-03-25T17:47:59.801Z,9.80
2018-03-25T17:51:03.166Z,9.80
2018-03-25T17:54:07.370Z,9.80
2018-03-25T17:57:10.667Z,9.70
2018-03-25T18:00:14.103Z,9.70
2018-03-25T18:03:18.227Z,9.60
2018-03-25T18:06:21.734Z,9.60
2018-03-25T18:09:25.082Z,9.60
2018-03-25T18:12:28.744Z,9.60
2018-03-25T18:15:32.072Z,9.60
2018-03-25T18:18:35.411Z,9.60
2018-03-25T18:21:39.718Z,9.50
2018-03-25T18:24:43.080Z,9.50
2018-03-25T18:27:46.431Z,9.50
2018-03-25T18:30:50.563Z,9.50
2018-03-25T18:33:53.900Z,9.40
2018-03-25T18:36:57.594Z,9.40
2018-03-25T18:40:00.955Z,9.30
2018-03-25T18:43:05.175Z,9.20
2018-03-25T18:46:09.217Z,9.10
2018-03-25T18:49:12.913Z,9.10
2018-03-25T18:52:16.335Z,9.10
2018-03-25T18:55:19.861Z,9.00
2018-03-25T18:58:23.300Z,8.90
2018-03-25T19:01:26.790Z,8.80
2018-03-25T19:04:30.869Z,8.90
2018-03-25T19:07:34.213Z,8.80
2018-03-25T19:10:37.699Z,8.80
2018-03-25T19:13:41.301Z,8.80
2018-03-25T19:16:45.391Z,8.70
2018-03-25T19:19:48.954Z,8.70
2018-03-25T19:22:52.320Z,8.70
2018-03-25T19:25:55.781Z,8.70
2018-03-25T19:28:59.150Z,8.60
2018-03-25T19:32:04.256Z,8.50
2018-03-25T19:35:07.647Z,8.50
2018-03-25T19:38:11.272Z,8.40
2018-03-25T19:41:15.394Z,8.40
2018-03-25T19:44:18.768Z,8.30
2018-03-25T19:47:22.167Z,8.30
2018-03-25T19:50:26.476Z,8.20
2018-03-25T19:53:29.812Z,8.20
2018-03-25T19:56:33.270Z,8.10
2018-03-25T19:59:37.394Z,8.00
2018-03-25T20:02:41.849Z,8.00
2018-03-25T20:05:45.134Z,8.00
2018-03-25T20:08:48.503Z,7.90
2018-03-25T20:11:51.876Z,7.90
2018-03-25T20:14:55.196Z,7.90
2018-03-25T20:17:59.338Z,7.80
2018-03-25T20:21:02.652Z,7.80
2018-03-25T20:24:06.072Z,7.80
2018-03-25T20:27:09.649Z,7.80
2018-03-25T20:30:13.037Z,7.80
2018-03-25T20:33:16.836Z,7.80
2018-03-25T20:36:20.169Z,7.80
2018-03-25T20:39:23.615Z,7.70
2018-03-25T20:42:26.939Z,7.70
2018-03-25T20:45:30.251Z,7.60
2018-03-25T20:48:33.584Z,7.60
2018-03-25T20:51:37.361Z,7.60
2018-03-25T20:54:40.695Z,7.50
2018-03-25T20:57:44.337Z,7.50
2018-03-25T21:00:48.443Z,7.40
2018-03-25T21:03:51.792Z,7.40
2018-03-25T21:06:55.122Z,7.40
2018-03-25T21:09:58.787Z,7.30
2018-03-25T21:13:02.913Z,7.30
2018-03-25T21:16:06.307Z,7.20
2018-03-25T21:19:09.641Z,7.20
2018-03-25T21:22:12.974Z,7.10
2018-03-25T21:25:16.332Z,7.10
2018-03-25T21:28:19.738Z,7.00
2018-03-25T21:31:23.037Z,7.00
2018-03-25T21:34:26.741Z,7.00
2018-03-25T21:37:30.063Z,6.90
2018-03-25T21:40:33.690Z,6.90
2018-03-25T21:43:37.109Z,6.90
2018-03-25T21:46:40.717Z,6.90
2018-03-25T21:49:44.013Z,6.90
2018-03-25T21:52:47.320Z,6.90
2018-03-25T21:55:50.645Z,6.90
2018-03-25T21:58:54.735Z,6.90
2018-03-25T22:01:58.055Z,6.90
2018-03-25T22:05:01.443Z,6.90
2018-03-25T22:08:05.560Z,6.70
2018-03-25T22:11:09.344Z,6.70
2018-03-25T22:14:12.613Z,6.70
2018-03-25T22:17:15.994Z,6.60
2018-03-25T22:20:19.414Z,6.60
2018-03-25T22:23:22.950Z,6.60
2018-03-25T22:26:26.270Z,6.50
2018-03-25T22:29:29.787Z,6.50
2018-03-25T22:32:33.856Z,6.50
2018-03-25T22:35:37.776Z,6.40
2018-03-25T22:38:41.096Z,6.50
2018-03-25T22:41:44.549Z,6.50
2018-03-25T22:44:47.925Z,6.50
2018-03-25T22:47:52.015Z,6.50
2018-03-25T22:50:55.324Z,6.40
2018-03-25T22:53:58.706Z,6.40
2018-03-25T22:57:02.009Z,6.40
2018-03-25T23:00:05.587Z,6.30
2018-03-25T23:03:09.827Z,6.30
2018-03-25T23:06:13.134Z,6.20
2018-03-25T23:09:16.429Z,6.20
2018-03-25T23:12:20.108Z,6.10
2018-03-25T23:15:23.515Z,6.00
2018-03-25T23:18:26.856Z,6.00
2018-03-25T23:21:30.183Z,5.90
2018-03-25T23:24:33.556Z,5.80
2018-03-25T23:27:37.889Z,5.60
2018-03-25T23:30:42.096Z,5.60
2018-03-25T23:33:46.203Z,5.60
2018-03-25T23:36:49.839Z,5.50
2018-03-25T23:39:53.185Z,5.60
2018-03-25T23:42:56.523Z,5.60
2018-03-25T23:46:00.570Z,5.60
2018-03-25T23:49:04.246Z,5.60
2018-03-25T23:52:07.606Z,5.50
2018-03-25T23:55:10.964Z,5.50
2018-03-25T23:58:14.299Z,5.50
